TAF and METAR

Decoding for American and Canadian METARs and TAFs is not fully implemented.

Could not understand the following METAR

CYXX 171100Z 00000KT 13SM OVC068 17/13 A2999 RMK AC8 SLP157 DENSITY ALT 500FT

TAF for Abbotsford International Airport

TAF CYXX 170538Z 1706/1806 VRB03KT P6SM FEW030 BKN050 OVC070 TEMPO 1706/1712 BKN030 FM171200 23005KT P6SM SCT020 BKN040 TEMPO 1712/1719 BKN020 FM171900 22010KT P6SM BKN040 RMK NXT FCST BY 171200Z
Report created 17. aug 07:38

between 17. aug 08:00 - 18. aug 08:00

wind 3 knots from various directions
Abbotsford International Airport in Canada at 58m

Latest 5 airports